Overview Statistics Trail Chart Weather Telemetry Raw packets
 

This is the latest recevied weather packets stored in our database for station/object K4WCH. If no packets are shown the sender has not sent any weather packets the latest 10 day(s).

<< 14 15 16 17 18 19 20 >>
Time Temp. Humidity Pressure Rain* Wind** Luminosity Snow
1788561987 23.33° C 97% 1015.5 hPa 7.11 mm - 3 W/m² -
1788561682 23.33° C 97% 1015.6 hPa 12.7 mm - 3 W/m² -
1788561381 23.33° C 97% 1015.2 hPa 26.92 mm - 3 W/m² -
1788561076 23.33° C 96% 1015.5 hPa 41.4 mm - 3 W/m² -
1788560772 23.33° C 96% 1015.6 hPa 49.78 mm - 2 W/m² -
1788560468 23.89° C 96% 1015.5 hPa 48.51 mm - 2 W/m² -
1788560168 23.89° C 95% 1015.3 hPa 45.47 mm - 2 W/m² -
1788559868 24.44° C 94% 1015.4 hPa 22.86 mm - 2 W/m² -
1788559563 25.56° C 89% 1015.3 hPa 3.56 mm - 1 W/m² -
1788559258 28.33° C 83% 1015 hPa 0 mm - 1 W/m² -
1788558958 28.33° C 83% 1014.3 hPa 0 mm - 8 W/m² -
1788558654 28.89° C 81% 1014.2 hPa 0 mm - 15 W/m² -
1788558349 30° C 77% 1014.2 hPa 0 mm - 17 W/m² -
1788558044 30.56° C 77% 1013.9 hPa 0 mm - 35 W/m² -
1788557742 30.56° C 76% 1013.8 hPa 0 mm - 39 W/m² -
1788557439 30.56° C 75% 1013.4 hPa 0 mm - 50 W/m² -
1788557138 30.56° C 75% 1013 hPa 0 mm - 73 W/m² -
1788556834 31.11° C 75% 1013.3 hPa 0 mm - 90 W/m² -
1788556534 31.67° C 73% 1013.6 hPa 0 mm - 129 W/m² -
1788556229 31.67° C 74% 1013.9 hPa 0 mm - 210 W/m² -
1788555928 31.67° C 74% 1014 hPa 0 mm - 241 W/m² -
1788555625 31.11° C 75% 1013.8 hPa 0 mm - 224 W/m² -
1788555320 31.11° C 75% 1014 hPa 0 mm - 186 W/m² -
1788555017 31.11° C 75% 1013.8 hPa 0 mm - 171 W/m² -
1788554712 31.11° C 74% 1013.9 hPa 0 mm - 176 W/m² -

* Rain latest hour (hover to see other rain measurements)
** Current wind speed in m/s (hover to see current wind gust speed)